Time;durP1;ratioP1;P1;durP2;ratioP2;P2;SDS_P1;SDS_P2;PMS_P1;PMS_P2;Temp;Humidity;BMP_temperature;BMP_pressure;BME280_temperature;BME280_humidity;BME280_pressure;Samples;Min_cycle;Max_cycle;Signal;HPM_P1;HPM_P2
2021/04/27 00:00:33;;;;;;;5.87;2.10;;;;;;;3.66;48.39;95650.53;5075538;28;20024;-75
2021/04/27 00:02:59;;;;;;;5.93;1.93;;;;;;;3.60;48.37;95657.09;5071772;28;20855;-74
2021/04/27 00:05:24;;;;;;;5.17;2.13;;;;;;;3.54;49.60;95647.19;5080731;28;20036;-75
2021/04/27 00:07:50;;;;;;;5.67;2.13;;;;;;;3.56;49.20;95652.28;5087538;28;20122;-75
2021/04/27 00:10:18;;;;;;;6.17;2.00;;;;;;;3.46;49.39;95650.47;5066187;28;20032;-75
2021/04/27 00:12:44;;;;;;;7.50;2.10;;;;;;;3.50;49.71;95648.41;5076424;28;20017;-75
2021/04/27 00:15:13;;;;;;;5.07;2.17;;;;;;;3.37;49.85;95643.44;5069472;28;20517;-75
2021/04/27 00:17:38;;;;;;;5.43;1.83;;;;;;;3.43;49.86;95640.31;5075212;28;20035;-75
2021/04/27 00:20:06;;;;;;;4.23;1.80;;;;;;;3.34;50.49;95646.28;5062813;28;20489;-76
2021/04/27 00:22:32;;;;;;;5.37;2.20;;;;;;;3.27;50.34;95638.19;5059617;28;20025;-75
2021/04/27 00:24:58;;;;;;;3.50;1.73;;;;;;;3.19;50.67;95635.41;5050305;28;20482;-75
2021/04/27 00:27:24;;;;;;;4.97;1.83;;;;;;;3.21;50.94;95636.09;5062355;28;20582;-75
2021/04/27 00:29:50;;;;;;;4.93;1.80;;;;;;;3.27;50.65;95632.16;5087774;28;20885;-76
2021/04/27 00:32:16;;;;;;;6.93;2.30;;;;;;;3.30;50.37;95626.72;5057186;28;20032;-75
2021/04/27 00:34:41;;;;;;;6.50;2.80;;;;;;;3.20;51.04;95628.44;5067048;28;20649;-74
2021/04/27 00:37:07;;;;;;;5.90;1.90;;;;;;;3.12;50.51;95616.09;5066350;28;20173;-75
2021/04/27 00:39:33;;;;;;;4.43;1.93;;;;;;;3.18;51.05;95618.16;5066698;28;20032;-75
2021/04/27 00:41:59;;;;;;;6.40;2.27;;;;;;;3.11;51.54;95619.63;5066927;28;20037;-75
2021/04/27 00:44:24;;;;;;;5.43;2.07;;;;;;;3.08;51.81;95619.88;5066972;28;20020;-75
2021/04/27 00:46:50;;;;;;;5.40;2.20;;;;;;;3.06;51.77;95614.00;5066768;28;20129;-75
2021/04/27 00:49:16;;;;;;;6.00;1.73;;;;;;;2.98;52.14;95614.63;5060784;28;20024;-75
2021/04/27 00:51:41;;;;;;;5.67;1.80;;;;;;;2.99;51.95;95620.69;5078314;28;20729;-75
2021/04/27 00:54:07;;;;;;;4.90;1.90;;;;;;;3.00;51.91;95617.94;5070595;28;20025;-75
2021/04/27 00:56:35;;;;;;;4.20;2.10;;;;;;;2.94;52.27;95612.44;5076000;28;20043;-76
2021/04/27 00:59:01;;;;;;;4.07;2.13;;;;;;;2.95;52.32;95609.72;5073380;28;20108;-74
2021/04/27 01:01:26;;;;;;;6.23;2.10;;;;;;;2.87;52.83;95606.91;5047662;28;20986;-76
2021/04/27 01:03:52;;;;;;;4.60;1.90;;;;;;;2.82;53.14;95599.53;5064666;28;20024;-75
2021/04/27 01:06:18;;;;;;;4.70;1.73;;;;;;;2.86;53.01;95600.09;5047244;28;20028;-75
2021/04/27 01:09:03;;;;;;;5.73;2.47;;;;;;;2.77;53.28;95600.84;5049202;28;20474;-75
2021/04/27 01:11:45;;;;;;;7.50;2.07;;;;;;;2.77;53.37;95598.25;5080569;28;20051;-75
2021/04/27 01:14:23;;;;;;;5.13;1.97;;;;;;;2.67;54.17;95595.59;5071889;28;20454;-75
2021/04/27 01:17:00;;;;;;;3.53;1.93;;;;;;;2.62;54.63;95592.56;5064176;28;20474;-76
2021/04/27 01:19:59;;;;;;;6.47;2.40;;;;;;;2.62;54.07;95600.34;5031659;28;20460;-75
2021/04/27 01:22:52;;;;;;;3.90;2.10;;;;;;;2.45;55.53;95591.34;5062411;28;20470;-75
2021/04/27 01:25:55;;;;;;;5.03;2.03;;;;;;;2.40;55.07;95588.28;5030599;28;20465;-76
2021/04/27 01:28:22;;;;;;;5.53;2.10;;;;;;;2.48;54.81;95585.91;5057013;28;21052;-75
2021/04/27 01:30:48;;;;;;;4.37;2.00;;;;;;;2.27;55.14;95585.03;5063264;28;20505;-75
2021/04/27 01:33:22;;;;;;;6.43;2.03;;;;;;;2.29;55.89;95586.56;5050200;28;20448;-76
2021/04/27 01:35:50;;;;;;;7.03;2.17;;;;;;;2.17;55.71;95572.00;5065742;28;20823;-76
2021/04/27 01:38:19;;;;;;;5.20;2.20;;;;;;;2.12;55.72;95574.16;5053058;28;20534;-75
2021/04/27 01:40:46;;;;;;;4.13;1.70;;;;;;;2.12;56.52;95574.97;5061771;28;20661;-75
2021/04/27 01:43:12;;;;;;;8.40;2.90;;;;;;;2.05;56.56;95581.59;5068982;28;20526;-75
2021/04/27 01:45:39;;;;;;;7.27;2.23;;;;;;;2.14;56.59;95580.00;5070284;28;20481;-74
2021/04/27 01:48:06;;;;;;;7.33;2.20;;;;;;;2.03;56.46;95570.50;5070206;28;20469;-75
2021/04/27 01:50:35;;;;;;;6.83;2.17;;;;;;;1.97;56.83;95575.38;5072427;28;21068;-74
2021/04/27 01:53:20;;;;;;;6.57;2.43;;;;;;;2.01;56.53;95576.75;5071555;28;20395;-75
2021/04/27 01:55:46;;;;;;;4.47;1.90;;;;;;;2.03;56.67;95580.06;5055402;28;20458;-75
2021/04/27 01:58:12;;;;;;;4.07;1.70;;;;;;;2.03;56.69;95574.88;5076697;28;20463;-75
2021/04/27 02:00:38;;;;;;;5.80;2.33;;;;;;;1.87;57.57;95570.91;5055179;28;20412;-75
2021/04/27 02:03:04;;;;;;;5.50;2.13;;;;;;;1.88;57.17;95571.75;5072843;28;20556;-75
2021/04/27 02:05:38;;;;;;;6.30;2.20;;;;;;;1.88;57.79;95567.38;5070938;28;20123;-75
2021/04/27 02:08:19;;;;;;;6.67;2.23;;;;;;;1.83;57.33;95558.31;5045088;28;20942;-75
2021/04/27 02:10:48;;;;;;;5.70;2.30;;;;;;;1.88;57.68;95566.56;5042418;28;20623;-75
2021/04/27 02:13:17;;;;;;;3.83;2.00;;;;;;;1.78;57.94;95561.28;5060982;28;20435;-74
2021/04/27 02:15:50;;;;;;;6.43;2.40;;;;;;;1.73;58.02;95558.22;5075166;28;20482;-75
2021/04/27 02:18:25;;;;;;;5.77;2.43;;;;;;;1.85;57.93;95556.44;5069341;28;20481;-75
2021/04/27 02:20:53;;;;;;;9.83;2.10;;;;;;;1.85;57.52;95546.06;5036170;28;20144;-75
2021/04/27 02:23:43;;;;;;;7.33;2.47;;;;;;;1.81;58.01;95549.81;5033635;28;20478;-74
2021/04/27 02:26:15;;;;;;;5.60;2.40;;;;;;;1.75;58.28;95558.13;5063574;28;20443;-74
2021/04/27 02:28:46;;;;;;;6.53;2.57;;;;;;;1.70;58.28;95544.69;5077347;28;20876;-75
2021/04/27 02:31:13;;;;;;;4.43;1.83;;;;;;;1.76;57.91;95541.63;5080409;28;20454;-75
2021/04/27 02:33:43;;;;;;;3.87;1.67;;;;;;;1.67;58.38;95552.69;5074244;28;20439;-75
2021/04/27 02:36:10;;;;;;;6.00;2.90;;;;;;;1.72;58.50;95540.22;5069951;28;21257;-75
2021/04/27 02:38:52;;;;;;;7.63;2.47;;;;;;;1.60;58.86;95547.19;5056971;28;20470;-74
2021/04/27 02:41:18;;;;;;;9.07;2.80;;;;;;;1.64;58.45;95544.25;5043280;28;20450;-75
2021/04/27 02:43:45;;;;;;;6.07;1.97;;;;;;;1.68;58.50;95538.78;5048898;28;20456;-74
2021/04/27 02:46:12;;;;;;;5.73;2.30;;;;;;;1.61;58.59;95541.91;5069029;28;20458;-74
2021/04/27 02:49:06;;;;;;;6.40;2.27;;;;;;;1.53;59.28;95539.06;5056069;28;20454;-74
2021/04/27 02:51:36;;;;;;;4.40;1.87;;;;;;;1.59;59.37;95537.78;5044363;28;20460;-74
2021/04/27 02:54:06;;;;;;;6.87;2.43;;;;;;;1.57;58.72;95537.06;5056342;28;20475;-75
2021/04/27 02:56:33;;;;;;;5.77;2.27;;;;;;;1.53;59.26;95536.47;5068543;28;20438;-74
2021/04/27 02:59:01;;;;;;;6.37;2.30;;;;;;;1.53;59.28;95535.66;5066264;28;20458;-74
2021/04/27 03:01:28;;;;;;;7.10;2.77;;;;;;;1.51;59.61;95530.59;5074866;28;20458;-74
2021/04/27 03:03:56;;;;;;;6.30;2.33;;;;;;;1.44;59.73;95526.00;5060317;28;20451;-74
2021/04/27 03:06:28;;;;;;;4.87;2.47;;;;;;;1.39;60.01;95528.97;5052545;28;20500;-74
2021/04/27 03:09:07;;;;;;;5.77;2.30;;;;;;;1.23;60.63;95520.75;5058419;28;21184;-74
2021/04/27 03:11:35;;;;;;;7.00;2.57;;;;;;;1.23;60.50;95513.78;5051990;28;20508;-74
2021/04/27 03:14:02;;;;;;;4.77;2.47;;;;;;;1.17;60.82;95515.13;5031784;28;20436;-73
2021/04/27 03:16:27;;;;;;;8.13;2.40;;;;;;;1.16;61.24;95508.28;5050959;28;20032;-74
2021/04/27 03:18:53;;;;;;;6.03;2.97;;;;;;;1.06;61.46;95514.28;5061352;28;20037;-74
2021/04/27 03:21:21;;;;;;;7.03;2.60;;;;;;;1.10;61.31;95508.75;5045032;28;20111;-74
2021/04/27 03:23:49;;;;;;;7.40;2.90;;;;;;;1.05;61.26;95510.88;5056261;28;20486;-74
2021/04/27 03:26:16;;;;;;;5.60;2.63;;;;;;;1.05;61.33;95510.88;5076616;28;20496;-74
2021/04/27 03:29:03;;;;;;;7.10;2.33;;;;;;;1.06;61.66;95512.53;5068065;28;20500;-74
2021/04/27 03:31:30;;;;;;;4.93;2.37;;;;;;;1.07;61.19;95510.75;5063734;28;20812;-74
2021/04/27 03:33:56;;;;;;;4.70;2.53;;;;;;;1.04;61.22;95513.56;5073073;28;21107;-73
2021/04/27 03:36:22;;;;;;;7.70;2.40;;;;;;;1.00;61.58;95513.00;5051477;28;20463;-73
2021/04/27 03:38:53;;;;;;;10.40;2.63;;;;;;;1.09;61.24;95512.28;5038182;28;20447;-74
2021/04/27 03:41:19;;;;;;;5.83;2.53;;;;;;;1.02;61.39;95515.47;5089492;28;20468;-74
2021/04/27 03:43:45;;;;;;;8.13;2.80;;;;;;;0.97;61.45;95517.59;5055583;28;20471;-74
2021/04/27 03:46:11;;;;;;;4.70;2.30;;;;;;;1.01;61.62;95514.66;5070268;28;20036;-74
2021/04/27 03:48:37;;;;;;;9.67;3.03;;;;;;;1.00;61.47;95517.34;5069967;28;20028;-73
2021/04/27 03:51:02;;;;;;;6.20;3.00;;;;;;;1.09;61.02;95521.81;5057231;28;20182;-73
2021/04/27 03:53:51;;;;;;;7.03;3.47;;;;;;;1.05;60.99;95516.06;5079442;28;20020;-74
2021/04/27 03:56:37;;;;;;;7.10;2.60;;;;;;;1.06;61.33;95511.69;5071157;28;20639;-74
2021/04/27 03:59:06;;;;;;;7.57;3.00;;;;;;;1.00;61.31;95517.34;5063864;28;20853;-74
2021/04/27 04:01:33;;;;;;;7.53;2.90;;;;;;;1.03;60.96;95517.94;5067556;28;21016;-76
2021/04/27 04:03:59;;;;;;;6.37;3.00;;;;;;;1.05;61.04;95518.66;5080451;28;20465;-74
2021/04/27 04:06:25;;;;;;;5.70;2.67;;;;;;;1.10;60.71;95518.28;5084613;28;20028;-75
2021/04/27 04:09:06;;;;;;;6.93;2.87;;;;;;;1.06;61.34;95515.09;5074458;28;20044;-76
2021/04/27 04:11:40;;;;;;;6.77;2.77;;;;;;;1.05;61.06;95515.25;5063960;28;20461;-74
2021/04/27 04:14:08;;;;;;;9.67;2.70;;;;;;;0.87;62.33;95518.31;5079046;28;20538;-74
2021/04/27 04:16:53;;;;;;;6.73;3.00;;;;;;;0.96;62.02;95527.13;5065607;28;20529;-76
2021/04/27 04:19:19;;;;;;;5.97;2.60;;;;;;;0.87;61.72;95517.47;5080048;28;20597;-75
2021/04/27 04:21:54;;;;;;;4.77;2.63;;;;;;;0.84;61.90;95523.72;5077027;28;20535;-74
2021/04/27 04:24:20;;;;;;;6.90;3.47;;;;;;;0.94;61.84;95524.66;5076900;28;20455;-75
2021/04/27 04:26:46;;;;;;;5.90;2.77;;;;;;;0.86;61.89;95518.41;5058595;28;20512;-75
2021/04/27 04:29:30;;;;;;;12.53;6.80;;;;;;;0.89;61.88;95520.78;5085289;28;20079;-75
2021/04/27 04:32:19;;;;;;;10.93;5.07;;;;;;;0.95;61.88;95525.47;5057075;28;20606;-74
2021/04/27 04:35:03;;;;;;;9.63;3.37;;;;;;;0.91;61.93;95524.06;5048824;28;20466;-73
2021/04/27 04:37:48;;;;;;;7.23;2.60;;;;;;;0.97;61.36;95523.56;5071020;28;20508;-75
2021/04/27 04:40:37;;;;;;;13.30;3.70;;;;;;;1.02;62.06;95526.66;5024828;28;20503;-74
2021/04/27 04:43:21;;;;;;;9.50;2.87;;;;;;;1.01;61.54;95521.59;5078057;28;21049;-75
2021/04/27 04:46:05;;;;;;;5.60;3.00;;;;;;;1.09;61.32;95517.47;5061353;28;21262;-76
2021/04/27 04:48:49;;;;;;;8.03;2.97;;;;;;;1.15;61.04;95517.00;5064789;28;20589;-74
2021/04/27 04:51:23;;;;;;;4.55;2.42;;;;;;;1.19;60.48;95517.56;5079368;28;20474;-75
2021/04/27 04:53:55;;;;;;;9.82;3.30;;;;;;;1.22;60.79;95512.16;5078771;28;20040;-74
2021/04/27 04:56:21;;;;;;;8.47;3.07;;;;;;;1.28;59.94;95516.03;5074013;28;20020;-75
2021/04/27 04:58:47;;;;;;;6.87;2.90;;;;;;;1.28;60.33;95516.88;5060182;28;21423;-76
2021/04/27 05:01:13;;;;;;;7.33;3.13;;;;;;;1.26;60.64;95521.34;5075722;28;20552;-73
2021/04/27 05:04:03;;;;;;;6.53;2.93;;;;;;;1.32;60.12;95520.03;5059525;28;20127;-74
2021/04/27 05:06:48;;;;;;;4.77;2.43;;;;;;;1.40;60.37;95520.25;5064987;28;20785;-74
2021/04/27 05:09:33;;;;;;;6.33;2.97;;;;;;;1.43;60.21;95514.81;5076227;28;20450;-74
2021/04/27 05:12:05;;;;;;;10.70;2.80;;;;;;;1.58;59.43;95520.59;5071141;28;20445;-74
2021/04/27 05:14:35;;;;;;;6.23;2.63;;;;;;;1.64;58.89;95520.91;5083438;28;20990;-74
2021/04/27 05:17:04;;;;;;;3.92;1.92;;;;;;;1.67;59.46;95519.81;5059848;28;20454;-74
2021/04/27 05:19:31;;;;;;;8.00;2.67;;;;;;;1.63;59.31;95523.63;5082343;28;20020;-74
2021/04/27 05:21:57;;;;;;;7.10;3.87;;;;;;;1.68;59.18;95523.25;5070638;28;20467;-73
2021/04/27 05:24:25;;;;;;;8.23;3.97;;;;;;;1.74;59.26;95522.75;5062167;28;20504;-74
2021/04/27 05:26:52;;;;;;;9.40;4.07;;;;;;;1.87;59.09;95528.59;5082087;28;20477;-74
2021/04/27 05:29:18;;;;;;;6.63;2.77;;;;;;;1.99;58.52;95532.00;5059256;28;20466;-74
2021/04/27 05:31:44;;;;;;;10.73;5.27;;;;;;;2.13;58.31;95527.31;5086705;28;20458;-74
2021/04/27 05:34:10;;;;;;;9.17;3.17;;;;;;;2.12;57.66;95517.91;5081822;28;20448;-74
2021/04/27 05:36:36;;;;;;;7.07;2.63;;;;;;;2.32;57.96;95520.66;5057626;28;20091;-74
2021/04/27 05:39:02;;;;;;;8.33;2.50;;;;;;;2.35;57.28;95518.63;5057648;28;20017;-74
2021/04/27 05:41:27;;;;;;;8.20;2.93;;;;;;;2.31;57.41;95524.16;5076773;28;20097;-73
2021/04/27 05:43:53;;;;;;;7.03;3.07;;;;;;;2.78;56.43;95519.41;5078558;28;20529;-73
2021/04/27 05:46:19;;;;;;;5.77;2.90;;;;;;;2.93;55.71;95518.13;5082754;28;20093;-74
2021/04/27 05:48:44;;;;;;;7.50;3.27;;;;;;;2.97;55.93;95508.28;5051826;28;20031;-74
2021/04/27 05:51:10;;;;;;;8.23;3.20;;;;;;;3.30;54.67;95509.78;5064805;28;20076;-74
2021/04/27 05:53:36;;;;;;;8.53;3.27;;;;;;;3.69;53.64;95504.63;5045184;28;20456;-73
2021/04/27 05:56:02;;;;;;;6.33;2.77;;;;;;;3.65;53.81;95511.06;5067477;28;20035;-74
2021/04/27 05:58:28;;;;;;;8.20;3.57;;;;;;;3.68;53.74;95501.22;5067653;28;20110;-74
2021/04/27 06:00:53;;;;;;;8.63;3.37;;;;;;;4.04;53.06;95501.53;5057521;28;20033;-76
2021/04/27 06:03:19;;;;;;;8.50;3.20;;;;;;;4.28;51.96;95495.09;5055689;28;20024;-74
2021/04/27 06:05:45;;;;;;;6.30;3.30;;;;;;;4.53;51.62;95497.13;5072461;28;20068;-73
2021/04/27 06:08:10;;;;;;;9.00;2.67;;;;;;;4.80;50.25;95496.34;5081347;28;20031;-74
2021/04/27 06:10:36;;;;;;;12.33;3.77;;;;;;;5.24;48.94;95504.41;5078291;28;20441;-74
2021/04/27 06:13:02;;;;;;;10.87;3.67;;;;;;;5.23;49.76;95497.56;5062590;28;20057;-74
2021/04/27 06:15:27;;;;;;;6.23;3.10;;;;;;;5.04;49.41;95497.66;5075170;28;20028;-74
2021/04/27 06:17:53;;;;;;;7.57;3.53;;;;;;;5.12;49.83;95498.56;5061216;28;20445;-74
2021/04/27 06:20:19;;;;;;;11.67;2.47;;;;;;;5.01;50.18;95505.75;5073037;28;20044;-74
2021/04/27 06:22:46;;;;;;;8.43;3.07;;;;;;;5.28;49.16;95495.34;5078242;28;20031;-73
2021/04/27 06:25:12;;;;;;;8.30;4.37;;;;;;;5.62;48.31;95498.16;5058638;28;20389;-74
2021/04/27 06:27:38;;;;;;;9.20;5.00;;;;;;;5.27;49.09;95504.13;5047525;28;20470;-74
2021/04/27 06:30:09;;;;;;;6.63;3.30;;;;;;;5.59;48.20;95489.81;5076932;28;20518;-74
2021/04/27 06:32:35;;;;;;;9.43;3.30;;;;;;;5.97;46.63;95486.16;5060859;28;20690;-74
2021/04/27 06:35:02;;;;;;;8.63;3.43;;;;;;;6.24;46.18;95487.88;5071870;28;20460;-74
2021/04/27 06:37:28;;;;;;;9.23;4.10;;;;;;;6.46;46.13;95485.75;5086618;28;20476;-74
2021/04/27 06:39:53;;;;;;;7.63;3.70;;;;;;;7.07;44.60;95484.81;5064095;28;20442;-75
2021/04/27 06:42:20;;;;;;;7.40;4.10;;;;;;;6.98;44.12;95480.53;5063414;28;20122;-74
2021/04/27 06:44:46;;;;;;;8.80;3.73;;;;;;;7.34;43.62;95481.16;5087227;28;20024;-74
2021/04/27 06:47:12;;;;;;;8.40;3.50;;;;;;;7.50;43.58;95472.56;5077894;28;21239;-74
2021/04/27 06:49:38;;;;;;;8.90;3.47;;;;;;;7.40;43.12;95475.31;5062515;28;20036;-74
2021/04/27 06:52:05;;;;;;;5.30;2.93;;;;;;;7.88;41.66;95467.72;5067491;28;20043;-74
2021/04/27 06:54:30;;;;;;;6.10;3.03;;;;;;;8.20;42.39;95466.97;5063825;28;20450;-76
2021/04/27 06:56:56;;;;;;;5.20;2.63;;;;;;;7.88;42.24;95465.13;5059937;28;20489;-76
2021/04/27 06:59:25;;;;;;;6.27;3.40;;;;;;;8.35;42.49;95464.50;5070609;28;20065;-76
2021/04/27 07:01:50;;;;;;;6.37;3.47;;;;;;;8.54;41.59;95466.81;5064756;28;20055;-75
2021/04/27 07:04:16;;;;;;;7.00;3.90;;;;;;;9.03;40.37;95461.47;5049078;28;20382;-76
2021/04/27 07:06:42;;;;;;;10.93;4.37;;;;;;;9.57;38.23;95461.59;5067096;28;20058;-76
2021/04/27 07:09:08;;;;;;;6.37;3.40;;;;;;;9.16;39.45;95461.78;5073827;28;20031;-76
2021/04/27 07:11:33;;;;;;;9.63;4.00;;;;;;;9.27;39.63;95454.53;5071959;28;20511;-76
2021/04/27 07:13:59;;;;;;;8.50;4.60;;;;;;;9.96;39.20;95449.38;5074472;28;20234;-76
2021/04/27 07:16:26;;;;;;;8.30;4.47;;;;;;;10.34;37.95;95445.03;5058341;28;20032;-76
2021/04/27 07:18:51;;;;;;;9.07;4.93;;;;;;;10.31;37.52;95448.03;5077043;28;20183;-76
2021/04/27 07:21:19;;;;;;;6.13;3.50;;;;;;;10.09;37.57;95444.38;5066618;28;20161;-75
2021/04/27 07:23:46;;;;;;;9.80;4.27;;;;;;;9.10;39.63;95454.56;5067847;28;20079;-75
2021/04/27 07:26:11;;;;;;;7.63;4.13;;;;;;;10.82;37.32;95440.31;5073818;28;20033;-74
2021/04/27 07:28:37;;;;;;;10.17;3.80;;;;;;;9.92;37.95;95443.66;5066843;28;20024;-76
2021/04/27 07:31:03;;;;;;;7.60;3.93;;;;;;;10.70;36.49;95429.44;5041106;28;20394;-76
2021/04/27 07:33:28;;;;;;;8.63;3.63;;;;;;;10.33;36.97;95432.91;5073623;28;20028;-76
2021/04/27 07:35:54;;;;;;;10.20;4.63;;;;;;;10.69;36.94;95427.78;5071108;28;20222;-76
2021/04/27 07:38:20;;;;;;;7.63;4.37;;;;;;;9.86;37.07;95444.38;5051773;28;20406;-75
2021/04/27 07:40:45;;;;;;;8.60;4.23;;;;;;;10.86;36.37;95436.31;5061691;28;20027;-76
2021/04/27 07:43:11;;;;;;;9.03;4.40;;;;;;;10.30;36.85;95444.56;5079757;28;20027;-76
2021/04/27 07:45:37;;;;;;;8.60;4.93;;;;;;;12.01;34.87;95433.94;5079043;28;20153;-76
2021/04/27 07:48:05;;;;;;;9.50;5.50;;;;;;;11.37;35.63;95433.78;5079483;28;20090;-76
2021/04/27 07:50:32;;;;;;;11.00;5.97;;;;;;;12.01;34.94;95428.66;5073326;28;20032;-76
2021/04/27 07:52:58;;;;;;;8.17;4.40;;;;;;;10.66;36.36;95435.22;5056304;28;20023;-75
2021/04/27 07:55:24;;;;;;;11.27;4.30;;;;;;;11.12;36.47;95440.34;5070669;28;20505;-75
2021/04/27 07:57:50;;;;;;;9.67;5.47;;;;;;;11.67;35.05;95439.81;5053318;28;20439;-76
2021/04/27 08:00:17;;;;;;;9.50;4.77;;;;;;;11.78;34.88;95430.63;5054937;28;20498;-76
2021/04/27 08:02:43;;;;;;;9.27;4.27;;;;;;;11.96;34.91;95436.28;5072255;28;20033;-76
2021/04/27 08:05:10;;;;;;;8.73;4.67;;;;;;;12.41;34.27;95430.84;5079803;28;20028;-76
2021/04/27 08:07:36;;;;;;;8.23;4.17;;;;;;;13.21;32.84;95443.59;5079532;28;20070;-77
2021/04/27 08:10:05;;;;;;;11.57;4.73;;;;;;;13.05;33.82;95432.53;5060452;28;20074;-76
2021/04/27 08:12:31;;;;;;;7.77;4.43;;;;;;;12.81;34.30;95431.13;5068121;28;20028;-77
2021/04/27 08:14:56;;;;;;;8.47;4.63;;;;;;;13.60;33.45;95425.50;5076342;28;20029;-77
2021/04/27 08:17:22;;;;;;;8.13;4.40;;;;;;;13.56;32.79;95424.25;5074832;28;20169;-77
2021/04/27 08:19:49;;;;;;;13.47;4.80;;;;;;;13.71;32.86;95432.03;5061421;28;20029;-76
2021/04/27 08:22:15;;;;;;;11.57;4.63;;;;;;;13.29;32.55;95434.72;5083359;28;20032;-77
2021/04/27 08:24:44;;;;;;;9.33;4.80;;;;;;;13.61;32.42;95437.69;5063615;28;20028;-77
2021/04/27 08:27:12;;;;;;;9.60;4.87;;;;;;;14.37;32.52;95425.06;5064710;28;20385;-76
2021/04/27 08:29:38;;;;;;;9.97;4.83;;;;;;;14.71;31.90;95417.97;5081292;28;20028;-77
2021/04/27 08:32:04;;;;;;;10.43;4.97;;;;;;;14.56;32.29;95422.66;5072303;28;20481;-76
2021/04/27 08:34:30;;;;;;;15.73;5.27;;;;;;;14.68;31.08;95428.13;5069032;28;20104;-77
2021/04/27 08:36:56;;;;;;;9.40;5.30;;;;;;;14.69;30.82;95420.00;5079938;28;20051;-77
2021/04/27 08:39:22;;;;;;;7.90;4.33;;;;;;;13.95;32.14;95422.75;5078219;28;20685;-77
2021/04/27 08:41:48;;;;;;;7.43;4.47;;;;;;;13.30;33.19;95431.06;5061474;28;20024;-77
2021/04/27 08:44:13;;;;;;;11.40;5.27;;;;;;;14.34;31.92;95427.28;5064879;28;20432;-77
2021/04/27 08:46:40;;;;;;;7.10;4.47;;;;;;;13.96;31.96;95429.69;5077475;28;20024;-77
2021/04/27 08:49:06;;;;;;;9.00;4.97;;;;;;;14.81;31.48;95415.72;5063344;28;20027;-77
2021/04/27 08:51:32;;;;;;;11.10;4.97;;;;;;;15.23;31.14;95415.44;5079291;28;20592;-77
2021/04/27 08:53:58;;;;;;;10.17;5.80;;;;;;;14.48;30.78;95431.56;5059031;28;20474;-77
2021/04/27 08:56:24;;;;;;;14.30;5.27;;;;;;;14.28;32.51;95425.44;5068240;28;20028;-76
2021/04/27 08:58:52;;;;;;;8.20;5.30;;;;;;;14.97;31.03;95419.75;5066657;28;20054;-77
2021/04/27 09:01:19;;;;;;;9.13;5.50;;;;;;;14.17;31.80;95426.06;5065431;28;20047;-77
2021/04/27 09:03:54;;;;;;;10.70;4.90;;;;;;;15.70;29.52;95410.81;5066356;28;20036;-77
2021/04/27 09:06:21;;;;;;;9.93;5.43;;;;;;;15.64;29.83;95406.31;5063374;28;20043;-77
2021/04/27 09:08:48;;;;;;;10.17;5.03;;;;;;;15.93;29.26;95413.75;5073805;28;20028;-78
2021/04/27 09:11:46;;;;;;;10.60;5.40;;;;;;;15.00;30.54;95413.25;5081775;28;20101;-76
2021/04/27 09:14:18;;;;;;;10.23;5.40;;;;;;;17.09;28.03;95414.31;5073427;28;20036;-77
2021/04/27 09:16:46;;;;;;;8.93;5.70;;;;;;;15.60;30.32;95402.47;5052822;28;20119;-77
2021/04/27 09:19:28;;;;;;;9.43;5.93;;;;;;;14.72;31.08;95409.03;5077976;28;20024;-77
2021/04/27 09:22:06;;;;;;;9.20;5.50;;;;;;;15.05;31.43;95403.66;5051640;28;20027;-77
2021/04/27 09:24:41;;;;;;;11.63;4.53;;;;;;;15.55;30.75;95395.94;5072294;28;20104;-77
2021/04/27 09:27:08;;;;;;;10.30;5.70;;;;;;;16.08;30.07;95392.22;5058234;28;20104;-77
2021/04/27 09:29:37;;;;;;;8.63;5.20;;;;;;;16.96;29.09;95388.69;5073683;28;20025;-78
2021/04/27 09:32:03;;;;;;;8.77;5.20;;;;;;;16.03;28.94;95395.53;5063766;28;20024;-77
2021/04/27 09:34:33;;;;;;;14.10;6.13;;;;;;;16.58;29.16;95394.13;5049455;28;20033;-78
2021/04/27 09:37:05;;;;;;;9.13;5.77;;;;;;;16.23;29.29;95389.25;5063797;28;20048;-78
2021/04/27 09:39:46;;;;;;;9.50;6.00;;;;;;;15.17;31.77;95389.78;5064926;28;20043;-78
2021/04/27 09:42:20;;;;;;;9.53;5.57;;;;;;;16.44;29.93;95386.25;5069038;28;20687;-77
2021/04/27 09:44:46;;;;;;;9.77;5.83;;;;;;;15.82;30.74;95392.38;5066228;28;20059;-77
2021/04/27 09:47:28;;;;;;;12.50;6.17;;;;;;;16.12;29.41;95382.81;5067788;28;20493;-77
2021/04/27 09:50:00;;;;;;;10.00;6.03;;;;;;;17.12;28.18;95382.78;5061634;28;20119;-77
2021/04/27 09:52:28;;;;;;;8.87;5.90;;;;;;;17.27;28.08;95378.94;5056096;28;20041;-77
2021/04/27 09:55:15;;;;;;;10.37;6.20;;;;;;;16.89;27.80;95372.00;5071449;28;20780;-77
2021/04/27 09:57:50;;;;;;;12.13;5.70;;;;;;;16.36;29.57;95378.56;5048769;28;20060;-77
2021/04/27 10:00:19;;;;;;;11.37;6.37;;;;;;;16.81;27.64;95369.66;5071806;28;20029;-77
2021/04/27 10:02:44;;;;;;;8.67;5.93;;;;;;;17.66;26.89;95373.16;5080658;28;20028;-78
2021/04/27 10:05:10;;;;;;;10.30;6.03;;;;;;;17.46;27.68;95369.13;5058679;28;20033;-77
2021/04/27 10:07:38;;;;;;;12.53;6.00;;;;;;;16.95;28.04;95363.97;5082316;28;20020;-77
2021/04/27 10:10:07;;;;;;;14.00;6.33;;;;;;;15.77;29.07;95369.19;5070059;28;20036;-78
2021/04/27 10:12:34;;;;;;;9.87;5.80;;;;;;;17.95;26.39;95354.81;5055642;28;20032;-78
2021/04/27 10:15:00;;;;;;;13.40;5.97;;;;;;;17.88;26.06;95354.91;5061397;28;20069;-78
2021/04/27 10:17:27;;;;;;;10.57;6.35;;;;;;;17.78;26.30;95348.50;5062752;28;20047;-77
2021/04/27 10:19:53;;;;;;;8.73;5.63;;;;;;;17.97;26.83;95367.88;5059145;28;20123;-77
2021/04/27 10:22:19;;;;;;;9.13;6.03;;;;;;;15.97;28.19;95361.91;5072521;28;20021;-76
2021/04/27 10:24:46;;;;;;;10.07;6.53;;;;;;;17.63;25.96;95355.00;5062821;28;20048;-78
2021/04/27 10:27:13;;;;;;;12.23;6.20;;;;;;;18.13;25.32;95345.94;5070888;28;20108;-79
2021/04/27 10:29:39;;;;;;;8.03;5.50;;;;;;;18.46;25.15;95342.75;5080896;28;20124;-79
2021/04/27 10:32:21;;;;;;;10.27;6.27;;;;;;;18.72;25.56;95336.19;5069992;28;20068;-79
2021/04/27 10:34:59;;;;;;;16.23;6.77;;;;;;;18.95;25.12;95332.72;5066981;28;20033;-78
2021/04/27 10:37:30;;;;;;;10.35;6.32;;;;;;;17.79;25.29;95334.16;5049838;28;20032;-79
2021/04/27 10:39:56;;;;;;;13.02;6.03;;;;;;;18.01;25.44;95332.63;5077510;28;20099;-78
2021/04/27 10:42:30;;;;;;;11.87;5.80;;;;;;;17.98;25.81;95332.28;5071649;28;20485;-78
2021/04/27 10:45:00;;;;;;;9.47;6.00;;;;;;;17.63;25.36;95331.06;5079240;28;20055;-77
2021/04/27 10:47:27;;;;;;;9.03;6.03;;;;;;;17.87;24.67;95341.81;5065778;28;20032;-78
2021/04/27 10:49:56;;;;;;;8.97;5.30;;;;;;;16.06;26.48;95335.94;5077152;28;20052;-78
2021/04/27 10:52:40;;;;;;;11.10;6.03;;;;;;;17.80;24.81;95320.63;5080262;28;20025;-78
2021/04/27 10:55:25;;;;;;;;;;;;;;;17.74;24.26;95329.50;5080443;28;20032;-79
2021/04/27 10:57:51;;;;;;;9.20;5.73;;;;;;;17.99;24.37;95315.25;5085295;28;19966;-78
2021/04/27 11:00:40;;;;;;;8.50;5.57;;;;;;;18.75;24.51;95318.97;5061243;28;20755;-78
2021/04/27 11:03:26;;;;;;;9.23;6.17;;;;;;;19.24;23.81;95314.91;5047910;28;20068;-78
2021/04/27 11:06:12;;;;;;;8.13;5.45;;;;;;;19.44;23.18;95311.03;5059249;28;20051;-77
2021/04/27 11:09:11;;;;;;;10.35;5.65;;;;;;;18.70;23.82;95308.94;5062856;28;20090;-79
2021/04/27 11:11:39;;;;;;;9.00;5.10;;;;;;;18.71;22.02;95309.75;5073965;28;20398;-78
2021/04/27 11:14:25;;;;;;;9.00;5.75;;;;;;;17.94;24.41;95318.63;5060052;28;20083;-77
2021/04/27 11:16:58;;;;;;;10.15;5.45;;;;;;;18.39;23.89;95307.44;5071337;28;20025;-77
2021/04/27 11:19:25;;;;;;;9.52;5.97;;;;;;;18.97;23.96;95311.97;5079866;28;20043;-80
2021/04/27 11:21:54;;;;;;;7.65;5.63;;;;;;;19.74;22.47;95289.50;5073980;28;20032;-78
2021/04/27 11:24:38;;;;;;;9.00;5.50;;;;;;;18.90;23.57;95300.63;5062386;28;20063;-78
2021/04/27 11:27:05;;;;;;;9.13;6.10;;;;;;;19.01;22.39;95302.47;5074293;28;20477;-77
2021/04/27 11:29:34;;;;;;;8.75;5.65;;;;;;;18.63;23.07;95296.81;5082481;28;20028;-79
2021/04/27 11:32:09;;;;;;;10.45;6.32;;;;;;;16.86;24.63;95314.03;5064787;28;20063;-77
2021/04/27 11:35:00;;;;;;;9.02;5.80;;;;;;;16.90;25.17;95309.88;5055910;28;20090;-78
2021/04/27 11:37:58;;;;;;;9.07;6.00;;;;;;;16.48;25.53;95297.22;5055448;28;20033;-78
2021/04/27 11:40:38;;;;;;;9.50;6.07;;;;;;;19.14;23.19;95281.94;5039363;28;20052;-78
2021/04/27 11:43:06;;;;;;;9.43;5.57;;;;;;;20.59;22.06;95279.66;5056785;28;20029;-78
2021/04/27 11:45:52;;;;;;;8.45;5.95;;;;;;;18.09;22.99;95297.69;5083221;28;20027;-78
2021/04/27 11:48:20;;;;;;;8.73;5.45;;;;;;;19.14;21.25;95282.72;5060086;28;20044;-78
2021/04/27 11:50:47;;;;;;;8.93;4.70;;;;;;;17.78;23.00;95300.66;5065517;28;20021;-78